sensor_id;sensor_type;location;lat;lon;timestamp;P1;durP1;ratioP1;P2;durP2;ratioP2
18162;SDS011;9206;50.994;4.538;2023-08-21T00:00:54;5.22;;;1.98;;
18162;SDS011;9206;50.994;4.538;2023-08-21T00:03:44;4.35;;;2.00;;
18162;SDS011;9206;50.994;4.538;2023-08-21T00:06:36;3.20;;;1.67;;
18162;SDS011;9206;50.994;4.538;2023-08-21T00:09:26;4.80;;;1.95;;
18162;SDS011;9206;50.994;4.538;2023-08-21T00:12:15;4.28;;;1.92;;
18162;SDS011;9206;50.994;4.538;2023-08-21T00:15:05;2.85;;;1.60;;
18162;SDS011;9206;50.994;4.538;2023-08-21T00:17:57;5.50;;;1.80;;
18162;SDS011;9206;50.994;4.538;2023-08-21T00:23:48;4.60;;;2.40;;
18162;SDS011;9206;50.994;4.538;2023-08-21T00:26:37;6.70;;;2.40;;
18162;SDS011;9206;50.994;4.538;2023-08-21T00:29:31;5.90;;;2.42;;
18162;SDS011;9206;50.994;4.538;2023-08-21T00:32:21;3.47;;;2.80;;
18162;SDS011;9206;50.994;4.538;2023-08-21T00:35:11;4.65;;;2.63;;
18162;SDS011;9206;50.994;4.538;2023-08-21T00:38:06;3.38;;;2.50;;
18162;SDS011;9206;50.994;4.538;2023-08-21T00:40:57;5.88;;;2.50;;
18162;SDS011;9206;50.994;4.538;2023-08-21T00:43:46;7.25;;;2.22;;
18162;SDS011;9206;50.994;4.538;2023-08-21T00:46:40;3.72;;;1.92;;
18162;SDS011;9206;50.994;4.538;2023-08-21T00:52:24;3.90;;;1.92;;
18162;SDS011;9206;50.994;4.538;2023-08-21T00:55:18;4.13;;;1.98;;
18162;SDS011;9206;50.994;4.538;2023-08-21T00:58:06;7.35;;;2.20;;
18162;SDS011;9206;50.994;4.538;2023-08-21T01:01:03;5.97;;;1.88;;
18162;SDS011;9206;50.994;4.538;2023-08-21T01:03:51;2.83;;;2.28;;
18162;SDS011;9206;50.994;4.538;2023-08-21T01:06:39;7.85;;;1.90;;
18162;SDS011;9206;50.994;4.538;2023-08-21T01:09:33;7.18;;;2.40;;
18162;SDS011;9206;50.994;4.538;2023-08-21T01:12:32;4.03;;;2.03;;
18162;SDS011;9206;50.994;4.538;2023-08-21T01:15:25;6.00;;;2.38;;
18162;SDS011;9206;50.994;4.538;2023-08-21T01:18:13;5.90;;;2.20;;
18162;SDS011;9206;50.994;4.538;2023-08-21T01:21:02;5.13;;;2.35;;
18162;SDS011;9206;50.994;4.538;2023-08-21T01:23:52;4.40;;;2.25;;
18162;SDS011;9206;50.994;4.538;2023-08-21T01:29:30;5.00;;;2.33;;
18162;SDS011;9206;50.994;4.538;2023-08-21T01:32:20;4.13;;;2.13;;
18162;SDS011;9206;50.994;4.538;2023-08-21T01:35:13;7.00;;;2.40;;
18162;SDS011;9206;50.994;4.538;2023-08-21T01:40:59;3.28;;;2.95;;
18162;SDS011;9206;50.994;4.538;2023-08-21T01:43:49;5.07;;;2.80;;
18162;SDS011;9206;50.994;4.538;2023-08-21T01:46:38;3.92;;;2.45;;
18162;SDS011;9206;50.994;4.538;2023-08-21T01:49:25;5.78;;;2.13;;
18162;SDS011;9206;50.994;4.538;2023-08-21T01:52:16;3.97;;;2.03;;
18162;SDS011;9206;50.994;4.538;2023-08-21T01:55:09;2.47;;;2.00;;
18162;SDS011;9206;50.994;4.538;2023-08-21T01:58:04;2.85;;;2.17;;
18162;SDS011;9206;50.994;4.538;2023-08-21T02:00:54;4.47;;;2.30;;
18162;SDS011;9206;50.994;4.538;2023-08-21T02:03:47;4.53;;;2.38;;
18162;SDS011;9206;50.994;4.538;2023-08-21T02:06:36;4.88;;;2.25;;
18162;SDS011;9206;50.994;4.538;2023-08-21T02:09:29;3.95;;;2.17;;
18162;SDS011;9206;50.994;4.538;2023-08-21T02:12:22;5.63;;;1.98;;
18162;SDS011;9206;50.994;4.538;2023-08-21T02:15:17;5.18;;;2.10;;
18162;SDS011;9206;50.994;4.538;2023-08-21T02:18:07;3.08;;;2.65;;
18162;SDS011;9206;50.994;4.538;2023-08-21T02:20:59;8.40;;;2.55;;
18162;SDS011;9206;50.994;4.538;2023-08-21T02:23:50;5.25;;;2.35;;
18162;SDS011;9206;50.994;4.538;2023-08-21T02:26:38;3.28;;;1.90;;
18162;SDS011;9206;50.994;4.538;2023-08-21T02:32:23;3.83;;;2.17;;
18162;SDS011;9206;50.994;4.538;2023-08-21T02:35:10;3.45;;;2.00;;
18162;SDS011;9206;50.994;4.538;2023-08-21T02:37:59;5.13;;;2.20;;
18162;SDS011;9206;50.994;4.538;2023-08-21T02:43:39;5.28;;;2.50;;
18162;SDS011;9206;50.994;4.538;2023-08-21T02:46:30;5.32;;;2.80;;
18162;SDS011;9206;50.994;4.538;2023-08-21T02:49:21;4.25;;;2.17;;
18162;SDS011;9206;50.994;4.538;2023-08-21T02:52:14;3.40;;;2.38;;
18162;SDS011;9206;50.994;4.538;2023-08-21T02:55:05;3.72;;;1.98;;
18162;SDS011;9206;50.994;4.538;2023-08-21T02:57:54;5.05;;;2.30;;
18162;SDS011;9206;50.994;4.538;2023-08-21T03:00:42;5.30;;;2.80;;
18162;SDS011;9206;50.994;4.538;2023-08-21T03:03:35;8.63;;;2.47;;
18162;SDS011;9206;50.994;4.538;2023-08-21T03:06:26;6.25;;;2.75;;
18162;SDS011;9206;50.994;4.538;2023-08-21T03:09:14;5.82;;;3.00;;
18162;SDS011;9206;50.994;4.538;2023-08-21T03:12:01;5.10;;;2.90;;
18162;SDS011;9206;50.994;4.538;2023-08-21T03:14:51;3.45;;;3.03;;
18162;SDS011;9206;50.994;4.538;2023-08-21T03:17:44;6.55;;;2.53;;
18162;SDS011;9206;50.994;4.538;2023-08-21T03:20:33;7.25;;;2.65;;
18162;SDS011;9206;50.994;4.538;2023-08-21T03:23:24;8.02;;;2.60;;
18162;SDS011;9206;50.994;4.538;2023-08-21T03:26:12;5.78;;;2.75;;
18162;SDS011;9206;50.994;4.538;2023-08-21T03:29:01;4.93;;;2.60;;
18162;SDS011;9206;50.994;4.538;2023-08-21T03:31:55;8.88;;;3.28;;
18162;SDS011;9206;50.994;4.538;2023-08-21T03:34:44;4.95;;;2.45;;
18162;SDS011;9206;50.994;4.538;2023-08-21T03:37:37;7.00;;;3.33;;
18162;SDS011;9206;50.994;4.538;2023-08-21T03:40:26;6.65;;;2.90;;
18162;SDS011;9206;50.994;4.538;2023-08-21T03:43:16;5.22;;;2.92;;
18162;SDS011;9206;50.994;4.538;2023-08-21T03:46:04;7.40;;;2.72;;
18162;SDS011;9206;50.994;4.538;2023-08-21T03:48:53;6.43;;;2.72;;
18162;SDS011;9206;50.994;4.538;2023-08-21T03:51:41;10.48;;;2.97;;
18162;SDS011;9206;50.994;4.538;2023-08-21T03:54:34;8.90;;;2.95;;
18162;SDS011;9206;50.994;4.538;2023-08-21T03:57:26;7.13;;;2.83;;
18162;SDS011;9206;50.994;4.538;2023-08-21T04:00:16;6.15;;;2.80;;
18162;SDS011;9206;50.994;4.538;2023-08-21T04:05:57;7.05;;;2.83;;
18162;SDS011;9206;50.994;4.538;2023-08-21T04:08:45;6.70;;;2.80;;
18162;SDS011;9206;50.994;4.538;2023-08-21T04:11:38;5.55;;;2.83;;
18162;SDS011;9206;50.994;4.538;2023-08-21T04:14:34;9.18;;;2.80;;
18162;SDS011;9206;50.994;4.538;2023-08-21T04:17:22;6.10;;;3.42;;
18162;SDS011;9206;50.994;4.538;2023-08-21T04:20:10;8.88;;;2.83;;
18162;SDS011;9206;50.994;4.538;2023-08-21T04:23:00;7.05;;;2.38;;
18162;SDS011;9206;50.994;4.538;2023-08-21T04:25:48;13.13;;;3.00;;
18162;SDS011;9206;50.994;4.538;2023-08-21T04:28:37;7.88;;;2.70;;
18162;SDS011;9206;50.994;4.538;2023-08-21T04:31:26;4.95;;;3.42;;
18162;SDS011;9206;50.994;4.538;2023-08-21T04:34:14;3.55;;;2.75;;
18162;SDS011;9206;50.994;4.538;2023-08-21T04:37:04;8.27;;;2.80;;
18162;SDS011;9206;50.994;4.538;2023-08-21T04:39:52;7.57;;;2.90;;
18162;SDS011;9206;50.994;4.538;2023-08-21T04:42:45;5.22;;;2.72;;
18162;SDS011;9206;50.994;4.538;2023-08-21T04:45:35;13.10;;;3.58;;
18162;SDS011;9206;50.994;4.538;2023-08-21T04:48:24;11.90;;;3.80;;
18162;SDS011;9206;50.994;4.538;2023-08-21T04:51:14;6.28;;;3.40;;
18162;SDS011;9206;50.994;4.538;2023-08-21T04:54:03;7.43;;;2.83;;
18162;SDS011;9206;50.994;4.538;2023-08-21T04:56:53;10.60;;;3.20;;
18162;SDS011;9206;50.994;4.538;2023-08-21T04:59:41;6.03;;;2.88;;
18162;SDS011;9206;50.994;4.538;2023-08-21T05:02:30;5.78;;;3.38;;
18162;SDS011;9206;50.994;4.538;2023-08-21T05:05:22;3.85;;;2.70;;
18162;SDS011;9206;50.994;4.538;2023-08-21T05:08:10;10.02;;;2.95;;
18162;SDS011;9206;50.994;4.538;2023-08-21T05:11:00;6.70;;;3.42;;
18162;SDS011;9206;50.994;4.538;2023-08-21T05:13:49;9.88;;;3.42;;
18162;SDS011;9206;50.994;4.538;2023-08-21T05:16:37;7.30;;;3.08;;
18162;SDS011;9206;50.994;4.538;2023-08-21T05:19:24;7.60;;;3.00;;
18162;SDS011;9206;50.994;4.538;2023-08-21T05:22:13;12.30;;;3.13;;
18162;SDS011;9206;50.994;4.538;2023-08-21T05:25:03;11.02;;;3.25;;
18162;SDS011;9206;50.994;4.538;2023-08-21T05:27:53;6.50;;;3.25;;
18162;SDS011;9206;50.994;4.538;2023-08-21T05:30:41;6.07;;;3.00;;
18162;SDS011;9206;50.994;4.538;2023-08-21T05:33:29;13.32;;;3.15;;
18162;SDS011;9206;50.994;4.538;2023-08-21T05:39:15;8.40;;;2.88;;
18162;SDS011;9206;50.994;4.538;2023-08-21T05:42:06;7.85;;;2.85;;
18162;SDS011;9206;50.994;4.538;2023-08-21T05:44:54;5.40;;;2.50;;
18162;SDS011;9206;50.994;4.538;2023-08-21T05:47:42;5.60;;;2.70;;
18162;SDS011;9206;50.994;4.538;2023-08-21T05:50:31;5.70;;;2.67;;
18162;SDS011;9206;50.994;4.538;2023-08-21T05:53:18;3.83;;;2.05;;
18162;SDS011;9206;50.994;4.538;2023-08-21T05:56:08;6.72;;;2.28;;
18162;SDS011;9206;50.994;4.538;2023-08-21T05:58:56;6.85;;;2.40;;
18162;SDS011;9206;50.994;4.538;2023-08-21T06:01:47;6.93;;;2.35;;
18162;SDS011;9206;50.994;4.538;2023-08-21T06:04:40;3.22;;;2.03;;
18162;SDS011;9206;50.994;4.538;2023-08-21T06:07:29;4.47;;;1.98;;
18162;SDS011;9206;50.994;4.538;2023-08-21T06:10:24;7.18;;;2.25;;
18162;SDS011;9206;50.994;4.538;2023-08-21T06:13:14;7.47;;;2.65;;
18162;SDS011;9206;50.994;4.538;2023-08-21T06:16:01;5.03;;;2.40;;
18162;SDS011;9206;50.994;4.538;2023-08-21T06:18:50;4.00;;;2.65;;
18162;SDS011;9206;50.994;4.538;2023-08-21T06:21:38;6.55;;;2.35;;
18162;SDS011;9206;50.994;4.538;2023-08-21T06:24:27;5.22;;;2.42;;
18162;SDS011;9206;50.994;4.538;2023-08-21T06:27:17;11.70;;;2.45;;
18162;SDS011;9206;50.994;4.538;2023-08-21T06:30:08;7.05;;;2.58;;
18162;SDS011;9206;50.994;4.538;2023-08-21T06:32:56;5.45;;;2.60;;
18162;SDS011;9206;50.994;4.538;2023-08-21T06:35:46;5.72;;;2.53;;
18162;SDS011;9206;50.994;4.538;2023-08-21T06:38:46;5.45;;;2.30;;
18162;SDS011;9206;50.994;4.538;2023-08-21T06:41:35;6.75;;;2.15;;
18162;SDS011;9206;50.994;4.538;2023-08-21T06:47:58;9.57;;;2.85;;
18162;SDS011;9206;50.994;4.538;2023-08-21T06:51:02;7.93;;;2.72;;
18162;SDS011;9206;50.994;4.538;2023-08-21T06:53:50;3.95;;;2.20;;
18162;SDS011;9206;50.994;4.538;2023-08-21T06:56:39;5.55;;;2.15;;
18162;SDS011;9206;50.994;4.538;2023-08-21T06:59:33;12.93;;;2.58;;
18162;SDS011;9206;50.994;4.538;2023-08-21T07:02:25;10.60;;;3.05;;
18162;SDS011;9206;50.994;4.538;2023-08-21T07:05:20;7.22;;;2.58;;
18162;SDS011;9206;50.994;4.538;2023-08-21T07:08:12;8.32;;;2.80;;
18162;SDS011;9206;50.994;4.538;2023-08-21T07:11:11;9.52;;;2.55;;
18162;SDS011;9206;50.994;4.538;2023-08-21T07:17:29;4.82;;;2.40;;
18162;SDS011;9206;50.994;4.538;2023-08-21T07:20:24;12.50;;;2.47;;
18162;SDS011;9206;50.994;4.538;2023-08-21T07:23:15;5.28;;;2.17;;
18162;SDS011;9206;50.994;4.538;2023-08-21T07:26:04;4.95;;;2.63;;
18162;SDS011;9206;50.994;4.538;2023-08-21T07:28:54;10.25;;;2.40;;
18162;SDS011;9206;50.994;4.538;2023-08-21T07:31:51;6.47;;;2.25;;
18162;SDS011;9206;50.994;4.538;2023-08-21T07:38:10;5.25;;;2.67;;
18162;SDS011;9206;50.994;4.538;2023-08-21T07:41:07;7.45;;;2.63;;
18162;SDS011;9206;50.994;4.538;2023-08-21T07:43:57;6.95;;;2.55;;
18162;SDS011;9206;50.994;4.538;2023-08-21T07:46:48;7.43;;;2.22;;
18162;SDS011;9206;50.994;4.538;2023-08-21T07:49:41;6.53;;;2.60;;
18162;SDS011;9206;50.994;4.538;2023-08-21T07:52:49;7.40;;;2.28;;
18162;SDS011;9206;50.994;4.538;2023-08-21T07:56:04;5.00;;;2.20;;
18162;SDS011;9206;50.994;4.538;2023-08-21T07:58:52;4.15;;;2.22;;
18162;SDS011;9206;50.994;4.538;2023-08-21T08:01:45;7.25;;;2.08;;
18162;SDS011;9206;50.994;4.538;2023-08-21T08:07:29;6.47;;;2.55;;
18162;SDS011;9206;50.994;4.538;2023-08-21T08:10:17;5.32;;;2.65;;
18162;SDS011;9206;50.994;4.538;2023-08-21T08:13:08;5.93;;;2.47;;
18162;SDS011;9206;50.994;4.538;2023-08-21T08:15:57;6.25;;;2.58;;
18162;SDS011;9206;50.994;4.538;2023-08-21T08:18:50;3.90;;;2.25;;
18162;SDS011;9206;50.994;4.538;2023-08-21T08:21:41;8.43;;;2.90;;
18162;SDS011;9206;50.994;4.538;2023-08-21T08:24:30;4.43;;;2.40;;
18162;SDS011;9206;50.994;4.538;2023-08-21T08:27:19;5.13;;;2.50;;
18162;SDS011;9206;50.994;4.538;2023-08-21T08:30:17;6.20;;;2.40;;
18162;SDS011;9206;50.994;4.538;2023-08-21T08:37:02;4.30;;;2.17;;
18162;SDS011;9206;50.994;4.538;2023-08-21T08:40:01;3.97;;;2.17;;
18162;SDS011;9206;50.994;4.538;2023-08-21T08:43:01;7.38;;;2.58;;
18162;SDS011;9206;50.994;4.538;2023-08-21T08:46:13;4.55;;;2.13;;
18162;SDS011;9206;50.994;4.538;2023-08-21T08:49:03;3.63;;;2.05;;
18162;SDS011;9206;50.994;4.538;2023-08-21T08:51:57;5.28;;;2.17;;
18162;SDS011;9206;50.994;4.538;2023-08-21T08:54:48;5.70;;;2.58;;
18162;SDS011;9206;50.994;4.538;2023-08-21T08:57:41;6.75;;;2.70;;
18162;SDS011;9206;50.994;4.538;2023-08-21T09:03:21;6.30;;;2.40;;
18162;SDS011;9206;50.994;4.538;2023-08-21T09:06:08;4.90;;;2.20;;
18162;SDS011;9206;50.994;4.538;2023-08-21T09:11:54;4.13;;;1.90;;
18162;SDS011;9206;50.994;4.538;2023-08-21T09:14:56;3.13;;;2.42;;
18162;SDS011;9206;50.994;4.538;2023-08-21T09:20:47;5.65;;;2.33;;
18162;SDS011;9206;50.994;4.538;2023-08-21T09:23:35;3.40;;;2.35;;
18162;SDS011;9206;50.994;4.538;2023-08-21T09:29:16;5.22;;;2.03;;
18162;SDS011;9206;50.994;4.538;2023-08-21T09:32:05;5.35;;;2.40;;
18162;SDS011;9206;50.994;4.538;2023-08-21T09:34:54;2.50;;;1.38;;
18162;SDS011;9206;50.994;4.538;2023-08-21T09:37:44;3.80;;;1.80;;
18162;SDS011;9206;50.994;4.538;2023-08-21T09:40:33;3.47;;;1.02;;
18162;SDS011;9206;50.994;4.538;2023-08-21T09:43:23;6.28;;;2.22;;
18162;SDS011;9206;50.994;4.538;2023-08-21T09:46:13;3.25;;;1.90;;
18162;SDS011;9206;50.994;4.538;2023-08-21T09:52:24;5.53;;;2.22;;
18162;SDS011;9206;50.994;4.538;2023-08-21T09:55:14;4.90;;;1.90;;
18162;SDS011;9206;50.994;4.538;2023-08-21T09:58:03;4.80;;;1.90;;
18162;SDS011;9206;50.994;4.538;2023-08-21T10:00:51;7.95;;;2.33;;
18162;SDS011;9206;50.994;4.538;2023-08-21T10:03:57;2.92;;;1.60;;
18162;SDS011;9206;50.994;4.538;2023-08-21T10:06:50;2.28;;;1.70;;
18162;SDS011;9206;50.994;4.538;2023-08-21T10:09:41;4.72;;;1.65;;
18162;SDS011;9206;50.994;4.538;2023-08-21T10:12:37;5.18;;;1.35;;
18162;SDS011;9206;50.994;4.538;2023-08-21T10:15:37;4.55;;;2.30;;
18162;SDS011;9206;50.994;4.538;2023-08-21T10:18:29;6.15;;;1.60;;
18162;SDS011;9206;50.994;4.538;2023-08-21T10:24:28;2.30;;;1.50;;
18162;SDS011;9206;50.994;4.538;2023-08-21T10:27:29;2.88;;;1.80;;
18162;SDS011;9206;50.994;4.538;2023-08-21T10:30:22;3.22;;;1.73;;
18162;SDS011;9206;50.994;4.538;2023-08-21T10:39:59;1.67;;;1.15;;
18162;SDS011;9206;50.994;4.538;2023-08-21T10:42:48;5.07;;;1.27;;
18162;SDS011;9206;50.994;4.538;2023-08-21T10:58:14;1.50;;;1.20;;
18162;SDS011;9206;50.994;4.538;2023-08-21T11:01:12;1.08;;;0.95;;
18162;SDS011;9206;50.994;4.538;2023-08-21T11:04:15;1.20;;;0.95;;
18162;SDS011;9206;50.994;4.538;2023-08-21T11:07:08;1.65;;;0.95;;
18162;SDS011;9206;50.994;4.538;2023-08-21T11:16:05;2.22;;;1.20;;
18162;SDS011;9206;50.994;4.538;2023-08-21T11:19:08;1.48;;;1.15;;
18162;SDS011;9206;50.994;4.538;2023-08-21T11:25:34;3.20;;;1.75;;
18162;SDS011;9206;50.994;4.538;2023-08-21T11:28:36;2.95;;;1.42;;
18162;SDS011;9206;50.994;4.538;2023-08-21T11:31:36;3.03;;;1.40;;
18162;SDS011;9206;50.994;4.538;2023-08-21T11:38:18;2.70;;;1.83;;
18162;SDS011;9206;50.994;4.538;2023-08-21T11:48:13;2.15;;;1.48;;
18162;SDS011;9206;50.994;4.538;2023-08-21T11:51:10;2.15;;;1.35;;
18162;SDS011;9206;50.994;4.538;2023-08-21T11:54:17;3.45;;;1.50;;
18162;SDS011;9206;50.994;4.538;2023-08-21T11:57:54;2.45;;;1.52;;
18162;SDS011;9206;50.994;4.538;2023-08-21T12:01:32;3.72;;;1.50;;
18162;SDS011;9206;50.994;4.538;2023-08-21T12:04:38;5.68;;;1.70;;
18162;SDS011;9206;50.994;4.538;2023-08-21T12:07:41;3.08;;;1.60;;
18162;SDS011;9206;50.994;4.538;2023-08-21T12:10:29;7.47;;;1.90;;
18162;SDS011;9206;50.994;4.538;2023-08-21T12:13:19;5.53;;;2.00;;
18162;SDS011;9206;50.994;4.538;2023-08-21T12:16:14;3.08;;;1.48;;
18162;SDS011;9206;50.994;4.538;2023-08-21T12:19:16;13.55;;;2.78;;
18162;SDS011;9206;50.994;4.538;2023-08-21T12:25:20;6.38;;;1.83;;
18162;SDS011;9206;50.994;4.538;2023-08-21T12:28:11;3.95;;;1.42;;
18162;SDS011;9206;50.994;4.538;2023-08-21T12:31:00;3.95;;;1.45;;
18162;SDS011;9206;50.994;4.538;2023-08-21T12:33:57;7.47;;;2.05;;
18162;SDS011;9206;50.994;4.538;2023-08-21T12:41:04;4.15;;;1.92;;
18162;SDS011;9206;50.994;4.538;2023-08-21T12:43:52;3.47;;;1.67;;
18162;SDS011;9206;50.994;4.538;2023-08-21T12:50:39;3.42;;;1.52;;
18162;SDS011;9206;50.994;4.538;2023-08-21T12:53:55;3.38;;;1.52;;
18162;SDS011;9206;50.994;4.538;2023-08-21T12:56:46;3.22;;;1.40;;
18162;SDS011;9206;50.994;4.538;2023-08-21T12:59:36;2.13;;;1.30;;
18162;SDS011;9206;50.994;4.538;2023-08-21T13:02:27;2.58;;;1.45;;
18162;SDS011;9206;50.994;4.538;2023-08-21T13:05:21;4.22;;;1.80;;
18162;SDS011;9206;50.994;4.538;2023-08-21T13:08:10;3.85;;;1.65;;
18162;SDS011;9206;50.994;4.538;2023-08-21T13:10:59;3.35;;;1.63;;
18162;SDS011;9206;50.994;4.538;2023-08-21T13:14:02;5.15;;;1.58;;
18162;SDS011;9206;50.994;4.538;2023-08-21T13:19:51;5.53;;;1.00;;
18162;SDS011;9206;50.994;4.538;2023-08-21T13:22:51;2.60;;;1.27;;
18162;SDS011;9206;50.994;4.538;2023-08-21T13:25:38;2.55;;;1.27;;
18162;SDS011;9206;50.994;4.538;2023-08-21T13:28:27;2.60;;;1.35;;
18162;SDS011;9206;50.994;4.538;2023-08-21T13:31:18;1.77;;;1.42;;
18162;SDS011;9206;50.994;4.538;2023-08-21T13:34:22;2.75;;;1.42;;
18162;SDS011;9206;50.994;4.538;2023-08-21T13:37:49;2.35;;;1.10;;
18162;SDS011;9206;50.994;4.538;2023-08-21T13:40:59;3.42;;;1.27;;
18162;SDS011;9206;50.994;4.538;2023-08-21T13:43:58;1.63;;;1.10;;
18162;SDS011;9206;50.994;4.538;2023-08-21T13:47:04;2.00;;;1.33;;
18162;SDS011;9206;50.994;4.538;2023-08-21T13:50:21;3.85;;;1.65;;
18162;SDS011;9206;50.994;4.538;2023-08-21T13:56:18;3.28;;;1.10;;
18162;SDS011;9206;50.994;4.538;2023-08-21T13:59:06;4.35;;;1.02;;
18162;SDS011;9206;50.994;4.538;2023-08-21T14:02:00;5.38;;;1.65;;
18162;SDS011;9206;50.994;4.538;2023-08-21T14:04:55;7.82;;;1.67;;
18162;SDS011;9206;50.994;4.538;2023-08-21T14:07:42;4.15;;;1.45;;
18162;SDS011;9206;50.994;4.538;2023-08-21T14:10:30;9.98;;;1.90;;
18162;SDS011;9206;50.994;4.538;2023-08-21T14:20:17;1.45;;;0.98;;
18162;SDS011;9206;50.994;4.538;2023-08-21T14:23:05;9.77;;;1.52;;
18162;SDS011;9206;50.994;4.538;2023-08-21T14:25:53;1.48;;;0.93;;
18162;SDS011;9206;50.994;4.538;2023-08-21T14:28:46;4.03;;;1.20;;
18162;SDS011;9206;50.994;4.538;2023-08-21T14:31:52;2.72;;;1.05;;
18162;SDS011;9206;50.994;4.538;2023-08-21T14:34:51;1.60;;;1.13;;
18162;SDS011;9206;50.994;4.538;2023-08-21T14:37:43;2.38;;;1.00;;
18162;SDS011;9206;50.994;4.538;2023-08-21T14:40:30;1.80;;;0.93;;
18162;SDS011;9206;50.994;4.538;2023-08-21T14:43:18;2.70;;;1.10;;
18162;SDS011;9206;50.994;4.538;2023-08-21T14:46:06;2.17;;;1.02;;
18162;SDS011;9206;50.994;4.538;2023-08-21T14:48:55;2.50;;;1.20;;
18162;SDS011;9206;50.994;4.538;2023-08-21T14:52:00;2.22;;;1.00;;
18162;SDS011;9206;50.994;4.538;2023-08-21T14:55:05;1.25;;;0.93;;
18162;SDS011;9206;50.994;4.538;2023-08-21T14:57:54;2.70;;;0.80;;
18162;SDS011;9206;50.994;4.538;2023-08-21T15:00:43;2.10;;;1.17;;
18162;SDS011;9206;50.994;4.538;2023-08-21T15:03:41;4.97;;;1.25;;
18162;SDS011;9206;50.994;4.538;2023-08-21T15:06:29;2.15;;;0.98;;
18162;SDS011;9206;50.994;4.538;2023-08-21T15:09:17;2.67;;;1.20;;
18162;SDS011;9206;50.994;4.538;2023-08-21T15:12:08;3.38;;;1.20;;
18162;SDS011;9206;50.994;4.538;2023-08-21T15:14:56;1.08;;;0.98;;
18162;SDS011;9206;50.994;4.538;2023-08-21T15:18:22;2.45;;;0.75;;
18162;SDS011;9206;50.994;4.538;2023-08-21T15:21:03;3.60;;;0.90;;
18162;SDS011;9206;50.994;4.538;2023-08-21T15:23:51;3.95;;;1.10;;
18162;SDS011;9206;50.994;4.538;2023-08-21T15:26:42;1.38;;;1.08;;
18162;SDS011;9206;50.994;4.538;2023-08-21T15:29:34;2.28;;;0.98;;
18162;SDS011;9206;50.994;4.538;2023-08-21T15:32:24;2.75;;;1.15;;
18162;SDS011;9206;50.994;4.538;2023-08-21T15:35:18;2.80;;;0.95;;
18162;SDS011;9206;50.994;4.538;2023-08-21T15:38:05;2.28;;;1.05;;
18162;SDS011;9206;50.994;4.538;2023-08-21T15:40:59;1.38;;;1.00;;
18162;SDS011;9206;50.994;4.538;2023-08-21T15:44:01;2.65;;;1.25;;
18162;SDS011;9206;50.994;4.538;2023-08-21T15:46:51;2.80;;;1.08;;
18162;SDS011;9206;50.994;4.538;2023-08-21T15:53:21;1.27;;;0.93;;
18162;SDS011;9206;50.994;4.538;2023-08-21T15:56:24;1.73;;;1.23;;
18162;SDS011;9206;50.994;4.538;2023-08-21T15:59:27;2.50;;;1.30;;
18162;SDS011;9206;50.994;4.538;2023-08-21T16:02:24;2.05;;;0.98;;
18162;SDS011;9206;50.994;4.538;2023-08-21T16:08:48;0.85;;;0.80;;
18162;SDS011;9206;50.994;4.538;2023-08-21T16:11:42;0.85;;;0.80;;
18162;SDS011;9206;50.994;4.538;2023-08-21T16:23:49;2.05;;;1.02;;
18162;SDS011;9206;50.994;4.538;2023-08-21T16:27:34;3.10;;;0.82;;
18162;SDS011;9206;50.994;4.538;2023-08-21T16:30:37;1.77;;;1.05;;
18162;SDS011;9206;50.994;4.538;2023-08-21T16:33:37;1.45;;;1.10;;
18162;SDS011;9206;50.994;4.538;2023-08-21T16:37:08;1.40;;;1.13;;
18162;SDS011;9206;50.994;4.538;2023-08-21T16:40:07;2.33;;;1.13;;
18162;SDS011;9206;50.994;4.538;2023-08-21T16:43:03;1.80;;;0.90;;
18162;SDS011;9206;50.994;4.538;2023-08-21T16:46:04;1.33;;;1.00;;
18162;SDS011;9206;50.994;4.538;2023-08-21T16:48:54;1.88;;;0.90;;
18162;SDS011;9206;50.994;4.538;2023-08-21T16:51:47;2.60;;;1.00;;
18162;SDS011;9206;50.994;4.538;2023-08-21T16:54:53;2.33;;;0.80;;
18162;SDS011;9206;50.994;4.538;2023-08-21T16:57:45;1.23;;;0.90;;
18162;SDS011;9206;50.994;4.538;2023-08-21T17:00:39;1.10;;;1.00;;
18162;SDS011;9206;50.994;4.538;2023-08-21T17:03:37;1.65;;;1.02;;
18162;SDS011;9206;50.994;4.538;2023-08-21T17:06:49;1.27;;;0.90;;
18162;SDS011;9206;50.994;4.538;2023-08-21T17:09:38;1.17;;;1.08;;
18162;SDS011;9206;50.994;4.538;2023-08-21T17:12:49;1.05;;;0.98;;
18162;SDS011;9206;50.994;4.538;2023-08-21T17:15:37;1.02;;;0.90;;
18162;SDS011;9206;50.994;4.538;2023-08-21T17:18:28;2.03;;;1.02;;
18162;SDS011;9206;50.994;4.538;2023-08-21T17:21:21;2.92;;;1.40;;
18162;SDS011;9206;50.994;4.538;2023-08-21T17:24:10;2.50;;;1.02;;
18162;SDS011;9206;50.994;4.538;2023-08-21T17:27:03;3.30;;;1.73;;
18162;SDS011;9206;50.994;4.538;2023-08-21T17:29:52;2.00;;;1.60;;
18162;SDS011;9206;50.994;4.538;2023-08-21T17:32:43;1.60;;;1.15;;
18162;SDS011;9206;50.994;4.538;2023-08-21T17:35:32;1.67;;;1.58;;
18162;SDS011;9206;50.994;4.538;2023-08-21T17:38:27;4.18;;;3.08;;
18162;SDS011;9206;50.994;4.538;2023-08-21T17:41:15;5.07;;;4.68;;
18162;SDS011;9206;50.994;4.538;2023-08-21T17:44:17;5.20;;;4.43;;
18162;SDS011;9206;50.994;4.538;2023-08-21T17:47:06;5.40;;;5.10;;
18162;SDS011;9206;50.994;4.538;2023-08-21T17:50:00;6.10;;;5.70;;
18162;SDS011;9206;50.994;4.538;2023-08-21T17:52:54;7.78;;;7.07;;
18162;SDS011;9206;50.994;4.538;2023-08-21T17:58:36;4.95;;;4.45;;
18162;SDS011;9206;50.994;4.538;2023-08-21T18:01:25;4.30;;;3.90;;
18162;SDS011;9206;50.994;4.538;2023-08-21T18:04:17;3.10;;;2.90;;
18162;SDS011;9206;50.994;4.538;2023-08-21T18:07:05;1.80;;;1.70;;
18162;SDS011;9206;50.994;4.538;2023-08-21T18:09:56;1.77;;;1.67;;
18162;SDS011;9206;50.994;4.538;2023-08-21T18:12:43;3.88;;;1.73;;
18162;SDS011;9206;50.994;4.538;2023-08-21T18:15:41;1.58;;;1.48;;
18162;SDS011;9206;50.994;4.538;2023-08-21T18:18:29;1.80;;;1.40;;
18162;SDS011;9206;50.994;4.538;2023-08-21T18:21:19;3.97;;;1.52;;
18162;SDS011;9206;50.994;4.538;2023-08-21T18:24:08;4.55;;;1.30;;
18162;SDS011;9206;50.994;4.538;2023-08-21T18:26:55;1.75;;;1.27;;
18162;SDS011;9206;50.994;4.538;2023-08-21T18:29:45;2.33;;;1.45;;
18162;SDS011;9206;50.994;4.538;2023-08-21T18:32:42;3.17;;;1.75;;
18162;SDS011;9206;50.994;4.538;2023-08-21T18:35:31;1.52;;;1.42;;
18162;SDS011;9206;50.994;4.538;2023-08-21T18:38:20;1.55;;;1.25;;
18162;SDS011;9206;50.994;4.538;2023-08-21T18:41:09;2.38;;;1.30;;
18162;SDS011;9206;50.994;4.538;2023-08-21T18:43:58;2.08;;;1.85;;
18162;SDS011;9206;50.994;4.538;2023-08-21T18:46:48;5.38;;;2.17;;
18162;SDS011;9206;50.994;4.538;2023-08-21T18:49:38;5.68;;;1.90;;
18162;SDS011;9206;50.994;4.538;2023-08-21T18:52:27;3.33;;;2.13;;
18162;SDS011;9206;50.994;4.538;2023-08-21T18:55:20;5.55;;;2.50;;
18162;SDS011;9206;50.994;4.538;2023-08-21T18:58:13;3.20;;;1.90;;
18162;SDS011;9206;50.994;4.538;2023-08-21T19:01:02;3.45;;;1.77;;
18162;SDS011;9206;50.994;4.538;2023-08-21T19:03:49;3.42;;;1.90;;
18162;SDS011;9206;50.994;4.538;2023-08-21T19:06:40;3.17;;;1.90;;
18162;SDS011;9206;50.994;4.538;2023-08-21T19:09:31;2.30;;;2.10;;
18162;SDS011;9206;50.994;4.538;2023-08-21T19:12:18;4.28;;;2.22;;
18162;SDS011;9206;50.994;4.538;2023-08-21T19:15:12;3.22;;;2.17;;
18162;SDS011;9206;50.994;4.538;2023-08-21T19:18:02;3.95;;;2.33;;
18162;SDS011;9206;50.994;4.538;2023-08-21T19:23:44;2.45;;;2.28;;
18162;SDS011;9206;50.994;4.538;2023-08-21T19:26:31;5.40;;;2.75;;
18162;SDS011;9206;50.994;4.538;2023-08-21T19:29:19;8.48;;;3.00;;
18162;SDS011;9206;50.994;4.538;2023-08-21T19:34:59;9.30;;;3.35;;
18162;SDS011;9206;50.994;4.538;2023-08-21T19:37:50;7.05;;;3.67;;
18162;SDS011;9206;50.994;4.538;2023-08-21T19:43:34;5.43;;;3.72;;
18162;SDS011;9206;50.994;4.538;2023-08-21T19:46:23;5.38;;;3.63;;
18162;SDS011;9206;50.994;4.538;2023-08-21T19:49:10;6.38;;;3.33;;
18162;SDS011;9206;50.994;4.538;2023-08-21T19:52:00;3.72;;;3.40;;
18162;SDS011;9206;50.994;4.538;2023-08-21T19:54:51;5.55;;;3.33;;
18162;SDS011;9206;50.994;4.538;2023-08-21T19:57:39;7.78;;;3.70;;
18162;SDS011;9206;50.994;4.538;2023-08-21T20:00:27;8.48;;;3.78;;
18162;SDS011;9206;50.994;4.538;2023-08-21T20:03:16;3.15;;;2.85;;
18162;SDS011;9206;50.994;4.538;2023-08-21T20:08:58;4.38;;;2.72;;